createdAt,value
2018-12-30T00:00:06.774Z,101403.00
2018-12-30T00:02:54.061Z,101261.00
2018-12-30T00:05:23.783Z,101400.00
2018-12-30T00:07:51.547Z,101401.00
2018-12-30T00:10:40.768Z,101334.00
2018-12-30T00:13:28.062Z,101412.00
2018-12-30T00:15:55.838Z,101379.00
2018-12-30T00:18:43.116Z,101489.00
2018-12-30T00:21:13.015Z,101409.00
2018-12-30T00:23:53.686Z,101421.00
2018-12-30T00:26:40.921Z,101358.00
2018-12-30T00:29:28.576Z,101195.00
2018-12-30T00:32:16.060Z,101413.00
2018-12-30T00:35:03.584Z,101219.00
2018-12-30T00:37:50.859Z,101255.00
2018-12-30T00:40:40.223Z,101540.00
2018-12-30T00:43:27.424Z,101201.00
2018-12-30T00:46:14.782Z,101274.00
2018-12-30T00:49:02.004Z,101183.00
2018-12-30T00:51:49.274Z,101467.00
2018-12-30T00:54:36.508Z,101349.00
2018-12-30T00:57:24.013Z,101488.00
2018-12-30T01:00:11.553Z,101479.00
2018-12-30T01:02:58.851Z,101329.00
2018-12-30T01:05:46.286Z,101453.00
2018-12-30T01:08:33.547Z,101316.00
2018-12-30T01:11:21.180Z,101180.00
2018-12-30T01:14:08.421Z,101451.00
2018-12-30T01:16:55.608Z,101446.00
2018-12-30T01:19:42.866Z,101245.00
2018-12-30T01:22:23.671Z,101449.00
2018-12-30T01:25:10.886Z,101229.00
2018-12-30T01:27:58.133Z,101297.00
2018-12-30T01:30:47.525Z,101469.00
2018-12-30T01:33:15.252Z,101489.00
2018-12-30T01:36:02.730Z,101342.00
2018-12-30T01:38:49.977Z,101489.00
2018-12-30T01:41:37.450Z,101450.00
2018-12-30T01:44:05.191Z,101500.00
2018-12-30T01:46:32.963Z,101496.00
2018-12-30T01:49:00.717Z,101498.00
2018-12-30T01:51:34.481Z,101513.00
2018-12-30T01:53:58.234Z,101525.00
2018-12-30T01:56:45.442Z,101514.00
2018-12-30T01:59:32.834Z,101526.00
2018-12-30T02:02:00.694Z,101529.00
2018-12-30T02:04:28.743Z,101522.00
2018-12-30T02:06:56.553Z,101525.00
2018-12-30T02:09:24.300Z,101479.00
2018-12-30T02:12:11.560Z,101536.00
2018-12-30T02:14:58.876Z,101537.00
2018-12-30T02:17:46.064Z,101542.00
2018-12-30T02:20:35.382Z,101546.00
2018-12-30T02:23:22.904Z,101356.00
2018-12-30T02:26:10.139Z,101542.00
2018-12-30T02:28:57.376Z,101542.00
2018-12-30T02:31:44.629Z,101440.00
2018-12-30T02:34:31.838Z,101347.00
2018-12-30T02:37:19.129Z,101420.00
2018-12-30T02:40:06.732Z,101564.00
2018-12-30T02:42:53.944Z,101557.00
2018-12-30T02:45:41.188Z,101562.00
2018-12-30T02:48:28.657Z,101570.00
2018-12-30T02:51:15.903Z,101579.00
2018-12-30T02:54:03.866Z,101579.00
2018-12-30T02:56:51.748Z,101430.00
2018-12-30T02:59:19.467Z,101590.00
2018-12-30T03:02:06.952Z,101589.00
2018-12-30T03:04:34.684Z,101587.00
2018-12-30T03:07:22.414Z,101594.00
2018-12-30T03:10:11.556Z,101575.00
2018-12-30T03:12:58.791Z,101586.00
2018-12-30T03:15:46.329Z,101577.00
2018-12-30T03:18:14.147Z,101583.00
2018-12-30T03:21:01.374Z,101591.00
2018-12-30T03:23:48.853Z,101401.00
2018-12-30T03:26:16.593Z,101597.00
2018-12-30T03:28:44.422Z,101596.00
2018-12-30T03:31:32.465Z,101604.00
2018-12-30T03:34:19.676Z,101605.00
2018-12-30T03:37:07.073Z,101607.00
2018-12-30T03:39:54.494Z,101718.00
2018-12-30T03:42:55.878Z,101342.00
2018-12-30T03:45:31.830Z,101355.00
2018-12-30T03:48:19.244Z,101686.00
2018-12-30T03:51:06.459Z,101381.00
2018-12-30T03:53:53.674Z,101538.00
2018-12-30T03:56:41.067Z,101621.00
2018-12-30T03:59:20.975Z,101473.00
2018-12-30T04:02:08.167Z,101630.00
2018-12-30T04:04:55.662Z,101557.00
2018-12-30T04:07:42.865Z,101455.00
2018-12-30T04:10:30.103Z,101498.00
2018-12-30T04:12:57.902Z,101645.00
2018-12-30T04:15:45.122Z,101578.00
2018-12-30T04:18:32.393Z,101639.00
2018-12-30T04:21:19.858Z,101711.00
2018-12-30T04:24:07.239Z,101389.00
2018-12-30T04:26:54.535Z,101515.00
2018-12-30T04:29:42.684Z,101657.00
2018-12-30T04:32:29.924Z,101667.00
2018-12-30T04:35:09.847Z,101474.00
2018-12-30T04:37:57.432Z,101673.00
2018-12-30T04:40:44.837Z,101505.00
2018-12-30T04:43:32.255Z,101483.00
2018-12-30T04:46:19.496Z,101511.00
2018-12-30T04:49:06.725Z,101470.00
2018-12-30T04:51:53.964Z,101714.00
2018-12-30T04:54:41.220Z,101690.00
2018-12-30T04:57:28.477Z,101694.00
2018-12-30T04:59:56.259Z,101684.00
2018-12-30T05:02:24.383Z,101688.00
2018-12-30T05:04:52.130Z,101681.00
2018-12-30T05:07:19.829Z,101685.00
2018-12-30T05:10:01.967Z,101688.00
2018-12-30T05:12:49.148Z,101687.00
2018-12-30T05:15:36.360Z,101496.00
2018-12-30T05:18:04.050Z,101690.00
2018-12-30T05:20:31.802Z,101711.00
2018-12-30T05:22:59.559Z,101712.00
2018-12-30T05:25:27.301Z,101710.00
2018-12-30T05:27:55.023Z,101709.00
2018-12-30T05:30:22.809Z,101725.00
2018-12-30T05:33:09.943Z,101771.00
2018-12-30T05:35:57.155Z,101539.00
2018-12-30T05:38:44.661Z,101747.00
2018-12-30T05:41:31.835Z,101754.00
2018-12-30T05:44:19.055Z,101716.00
2018-12-30T05:47:08.538Z,101583.00
2018-12-30T05:49:55.787Z,101784.00
2018-12-30T05:52:42.992Z,101762.00
2018-12-30T05:55:10.692Z,101762.00
2018-12-30T05:57:58.111Z,101768.00
2018-12-30T06:00:45.575Z,101601.00
2018-12-30T06:03:32.745Z,101790.00
2018-12-30T06:06:19.953Z,101802.00
2018-12-30T06:09:07.369Z,101802.00
2018-12-30T06:11:47.771Z,101704.00
2018-12-30T06:14:15.480Z,101831.00
2018-12-30T06:17:02.817Z,101826.00
2018-12-30T06:19:50.189Z,101642.00
2018-12-30T06:22:37.428Z,101668.00
2018-12-30T06:25:24.637Z,101679.00
2018-12-30T06:28:11.845Z,101858.00
2018-12-30T06:30:59.302Z,101668.00
2018-12-30T06:33:46.477Z,101669.00
2018-12-30T06:36:33.692Z,101878.00
2018-12-30T06:39:20.901Z,101876.00
2018-12-30T06:42:01.146Z,101701.00
2018-12-30T06:44:48.719Z,101887.00
2018-12-30T06:47:35.960Z,101735.00
2018-12-30T06:50:23.242Z,101937.00
2018-12-30T06:53:10.629Z,101885.00
2018-12-30T06:55:57.862Z,101881.00
2018-12-30T06:58:45.080Z,101873.00
2018-12-30T07:01:32.342Z,101879.00
2018-12-30T07:04:19.559Z,101733.00
2018-12-30T07:07:06.864Z,101870.00
2018-12-30T07:09:54.051Z,101874.00
2018-12-30T07:12:41.281Z,101880.00
2018-12-30T07:15:28.573Z,101876.00
2018-12-30T07:17:56.299Z,101872.00
2018-12-30T07:20:43.536Z,101885.00
2018-12-30T07:23:30.759Z,101750.00
2018-12-30T07:26:17.993Z,101893.00
2018-12-30T07:29:05.213Z,101912.00
2018-12-30T07:31:52.656Z,101911.00
2018-12-30T07:34:39.878Z,101745.00
2018-12-30T07:37:27.650Z,101917.00
2018-12-30T07:40:07.838Z,101935.00
2018-12-30T07:42:55.068Z,101940.00
2018-12-30T07:45:42.290Z,101700.00
2018-12-30T07:48:29.469Z,101807.00
2018-12-30T07:51:16.902Z,101776.00
2018-12-30T07:54:04.366Z,101731.00
2018-12-30T07:56:51.803Z,101669.00
2018-12-30T07:59:39.215Z,101985.00
2018-12-30T08:02:26.455Z,101819.00
2018-12-30T08:05:13.982Z,102000.00
2018-12-30T08:08:01.295Z,101989.00
2018-12-30T08:10:48.726Z,101709.00
2018-12-30T08:13:36.490Z,101739.00
2018-12-30T08:16:23.819Z,101779.00
2018-12-30T08:19:11.092Z,101755.00
2018-12-30T08:21:58.362Z,101982.00
2018-12-30T08:24:47.000Z,102066.00
2018-12-30T08:27:34.318Z,101986.00
2018-12-30T08:30:21.550Z,102004.00
2018-12-30T08:33:08.817Z,102008.00
2018-12-30T08:35:56.093Z,102107.00
2018-12-30T08:38:43.355Z,102010.00
2018-12-30T08:41:23.718Z,101791.00
2018-12-30T08:43:51.546Z,102005.00
2018-12-30T08:46:40.830Z,102010.00
2018-12-30T08:49:28.109Z,101824.00
2018-12-30T08:52:15.839Z,102007.00
2018-12-30T08:54:43.662Z,102012.00
2018-12-30T08:57:31.111Z,102093.00
2018-12-30T08:59:58.850Z,102016.00
2018-12-30T09:02:26.628Z,102019.00
2018-12-30T09:04:54.508Z,102022.00
2018-12-30T09:07:44.102Z,102023.00
2018-12-30T09:10:12.041Z,102029.00
2018-12-30T09:12:59.300Z,102033.00
2018-12-30T09:15:27.107Z,102039.00
2018-12-30T09:17:54.909Z,102043.00
2018-12-30T09:20:42.153Z,102043.00
2018-12-30T09:23:37.097Z,101862.00
2018-12-30T09:25:59.440Z,102041.00
2018-12-30T09:28:46.776Z,101920.00
2018-12-30T09:31:34.339Z,102048.00
2018-12-30T09:34:02.165Z,102052.00
2018-12-30T09:36:29.955Z,102052.00
2018-12-30T09:38:57.821Z,102068.00
2018-12-30T09:41:25.721Z,102073.00
2018-12-30T09:44:13.004Z,101825.00
2018-12-30T09:47:00.777Z,102059.00
2018-12-30T09:49:30.021Z,102070.00
2018-12-30T09:51:58.839Z,102063.00
2018-12-30T09:54:26.872Z,102047.00
2018-12-30T09:56:54.765Z,102009.00
2018-12-30T09:59:22.731Z,102065.00
2018-12-30T10:02:10.270Z,102060.00
2018-12-30T10:04:57.877Z,102073.00
2018-12-30T10:07:45.448Z,101841.00
2018-12-30T10:10:13.359Z,102086.00
2018-12-30T10:13:01.553Z,102091.00
2018-12-30T10:15:29.395Z,102081.00
2018-12-30T10:18:16.982Z,102039.00
2018-12-30T10:21:04.259Z,102011.00
2018-12-30T10:23:53.247Z,102082.00
2018-12-30T10:26:21.133Z,102098.00
2018-12-30T10:28:49.333Z,102092.00
2018-12-30T10:31:36.839Z,101912.00
2018-12-30T10:34:04.674Z,102088.00
2018-12-30T10:36:32.450Z,102078.00
2018-12-30T10:39:12.417Z,101859.00
2018-12-30T10:41:59.691Z,102154.00
2018-12-30T10:44:47.228Z,101965.00
2018-12-30T10:47:34.611Z,102075.00
2018-12-30T10:50:21.955Z,102069.00
2018-12-30T10:53:09.370Z,102080.00
2018-12-30T10:55:56.955Z,102094.00
2018-12-30T10:58:44.216Z,101946.00
2018-12-30T11:01:31.472Z,102094.00
2018-12-30T11:04:18.777Z,102215.00
2018-12-30T11:07:06.392Z,102100.00
2018-12-30T11:09:34.155Z,102113.00
2018-12-30T11:12:02.002Z,101995.00
2018-12-30T11:14:29.878Z,102107.00
2018-12-30T11:17:17.208Z,101981.00
2018-12-30T11:19:45.009Z,102110.00
2018-12-30T11:22:12.880Z,102095.00
2018-12-30T11:24:40.811Z,102092.00
2018-12-30T11:27:08.656Z,102081.00
2018-12-30T11:29:36.525Z,102101.00
2018-12-30T11:32:06.401Z,102093.00
2018-12-30T11:34:53.713Z,102086.00
2018-12-30T11:37:33.910Z,101994.00
2018-12-30T11:40:21.438Z,102072.00
2018-12-30T11:43:08.959Z,102060.00
2018-12-30T11:45:56.257Z,101900.00
2018-12-30T11:48:43.538Z,101928.00
2018-12-30T11:51:31.261Z,102051.00
2018-12-30T11:54:18.983Z,102046.00
2018-12-30T11:57:06.377Z,102041.00
2018-12-30T11:59:53.770Z,101857.00
2018-12-30T12:02:41.137Z,101822.00
2018-12-30T12:05:28.496Z,102037.00
2018-12-30T12:08:15.769Z,101728.00
2018-12-30T12:10:43.564Z,102020.00
2018-12-30T12:13:11.805Z,102026.00
2018-12-30T12:16:00.226Z,102059.00
2018-12-30T12:18:47.790Z,101793.00
2018-12-30T12:21:35.054Z,102014.00
2018-12-30T12:24:24.441Z,101876.00
2018-12-30T12:27:11.806Z,101826.00
2018-12-30T12:29:39.664Z,102027.00
2018-12-30T12:32:07.502Z,102024.00
2018-12-30T12:34:55.010Z,101870.00
2018-12-30T12:37:42.652Z,102023.00
2018-12-30T12:40:30.007Z,101843.00
2018-12-30T12:43:17.544Z,102013.00
2018-12-30T12:46:06.252Z,101892.00
2018-12-30T12:48:54.872Z,102024.00
2018-12-30T12:51:42.591Z,102012.00
2018-12-30T12:54:32.239Z,101888.00
2018-12-30T12:57:19.274Z,102025.00
2018-12-30T13:00:09.075Z,101793.00
2018-12-30T13:02:37.071Z,102039.00
2018-12-30T13:05:24.607Z,102101.00
2018-12-30T13:08:11.970Z,101778.00
2018-12-30T13:10:59.284Z,102031.00
2018-12-30T13:13:46.654Z,102029.00
2018-12-30T13:16:34.091Z,102021.00
2018-12-30T13:19:21.516Z,102032.00
2018-12-30T13:22:08.861Z,101893.00
2018-12-30T13:24:56.501Z,102051.00
2018-12-30T13:27:43.981Z,101943.00
2018-12-30T13:30:34.090Z,102056.00
2018-12-30T13:33:02.103Z,102050.00
2018-12-30T13:35:30.027Z,102056.00
2018-12-30T13:37:57.947Z,102049.00
2018-12-30T13:40:25.895Z,102059.00
2018-12-30T13:42:54.322Z,101833.00
2018-12-30T13:45:22.288Z,102061.00
2018-12-30T13:47:50.254Z,102063.00
2018-12-30T13:50:37.808Z,102068.00
2018-12-30T13:53:05.697Z,102069.00
2018-12-30T13:55:33.572Z,102081.00
2018-12-30T13:58:01.392Z,102089.00
2018-12-30T14:00:48.728Z,102170.00
2018-12-30T14:03:16.611Z,102103.00
2018-12-30T14:05:44.588Z,102110.00
2018-12-30T14:08:31.846Z,102198.00
2018-12-30T14:11:19.385Z,102100.00
2018-12-30T14:14:06.901Z,102100.00
2018-12-30T14:16:54.400Z,102068.00
2018-12-30T14:19:22.251Z,102109.00
2018-12-30T14:22:09.564Z,101889.00
2018-12-30T14:24:56.859Z,101905.00
2018-12-30T14:30:32.990Z,102101.00
2018-12-30T14:33:22.420Z,102101.00
2018-12-30T14:36:02.973Z,102106.00
2018-12-30T14:38:30.849Z,102116.00
2018-12-30T14:40:58.765Z,102119.00
2018-12-30T14:43:46.195Z,102256.00
2018-12-30T14:46:34.967Z,102027.00
2018-12-30T14:49:22.921Z,101822.00
2018-12-30T14:52:10.195Z,102090.00
2018-12-30T14:55:03.603Z,101930.00
2018-12-30T14:57:46.765Z,101896.00
2018-12-30T15:00:14.681Z,102048.00
2018-12-30T15:02:42.653Z,102104.00
2018-12-30T15:05:30.412Z,102103.00
2018-12-30T15:07:58.436Z,102101.00
2018-12-30T15:10:45.824Z,102101.00
2018-12-30T15:13:33.182Z,101891.00
2018-12-30T15:16:00.995Z,102117.00
2018-12-30T15:18:28.908Z,102126.00
2018-12-30T15:20:56.820Z,102134.00
2018-12-30T15:23:44.196Z,102121.00
2018-12-30T15:26:12.116Z,102120.00
2018-12-30T15:28:59.507Z,102218.00
2018-12-30T15:31:46.987Z,102112.00
2018-12-30T15:34:27.311Z,102193.00
2018-12-30T15:37:14.744Z,102112.00
2018-12-30T15:39:42.613Z,102115.00
2018-12-30T15:42:30.301Z,102115.00
2018-12-30T15:45:17.638Z,102106.00
2018-12-30T15:48:04.956Z,102109.00
2018-12-30T15:50:52.258Z,102102.00
2018-12-30T15:53:20.239Z,102089.00
2018-12-30T15:56:07.597Z,102040.00
2018-12-30T15:58:35.506Z,102056.00
2018-12-30T16:01:22.858Z,101924.00
2018-12-30T16:03:50.690Z,102072.00
2018-12-30T16:06:19.553Z,102077.00
2018-12-30T16:08:48.604Z,102063.00
2018-12-30T16:11:36.000Z,101901.00
2018-12-30T16:14:23.778Z,102068.00
2018-12-30T16:17:12.225Z,102086.00
2018-12-30T16:19:40.215Z,102092.00
2018-12-30T16:22:08.115Z,102093.00
2018-12-30T16:24:55.476Z,102137.00
2018-12-30T16:27:42.876Z,102075.00
2018-12-30T16:30:30.476Z,101886.00
2018-12-30T16:33:17.820Z,101916.00
2018-12-30T16:36:05.189Z,102102.00
2018-12-30T16:38:52.926Z,102085.00
2018-12-30T16:41:40.281Z,102094.00
2018-12-30T16:44:27.632Z,102137.00
2018-12-30T16:46:55.574Z,102086.00
2018-12-30T16:49:42.896Z,102152.00
2018-12-30T16:52:10.859Z,102101.00
2018-12-30T16:54:58.182Z,102048.00
2018-12-30T16:57:39.176Z,102183.00
2018-12-30T17:00:26.588Z,102090.00
2018-12-30T17:03:14.150Z,102194.00
2018-12-30T17:05:42.096Z,102099.00
2018-12-30T17:08:10.287Z,102102.00
2018-12-30T17:10:38.333Z,102101.00
2018-12-30T17:13:06.233Z,102098.00
2018-12-30T17:15:53.628Z,101933.00
2018-12-30T17:18:41.039Z,102089.00
2018-12-30T17:21:28.940Z,102092.00
2018-12-30T17:23:56.815Z,102071.00
2018-12-30T17:26:24.618Z,102072.00
2018-12-30T17:28:52.561Z,102088.00
2018-12-30T17:31:33.644Z,102080.00
2018-12-30T17:34:20.986Z,101883.00
2018-12-30T17:37:08.298Z,102093.00
2018-12-30T17:39:55.974Z,101889.00
2018-12-30T17:42:23.850Z,102076.00
2018-12-30T17:45:11.685Z,101882.00
2018-12-30T17:47:59.511Z,102027.00
2018-12-30T17:50:46.836Z,102168.00
2018-12-30T17:53:34.932Z,102080.00
2018-12-30T17:56:22.253Z,101911.00
2018-12-30T17:59:09.639Z,101957.00
2018-12-30T18:01:57.071Z,101909.00
2018-12-30T18:04:44.642Z,102102.00
2018-12-30T18:07:32.189Z,102113.00
2018-12-30T18:10:00.189Z,102113.00
2018-12-30T18:12:28.094Z,102107.00
2018-12-30T18:14:55.926Z,102111.00
2018-12-30T18:17:23.871Z,102057.00
2018-12-30T18:19:51.706Z,102113.00
2018-12-30T18:22:19.741Z,102105.00
2018-12-30T18:24:47.604Z,102108.00
2018-12-30T18:27:15.546Z,102103.00
2018-12-30T18:29:44.244Z,102101.00
2018-12-30T18:32:12.399Z,102104.00
2018-12-30T18:34:40.287Z,102109.00
2018-12-30T18:37:08.166Z,102108.00
2018-12-30T18:39:36.112Z,102104.00
2018-12-30T18:42:23.740Z,102105.00
2018-12-30T18:45:11.167Z,101915.00
2018-12-30T18:47:59.009Z,101974.00
2018-12-30T18:50:46.452Z,102106.00
2018-12-30T18:53:33.979Z,102199.00
2018-12-30T18:56:06.730Z,102119.00
2018-12-30T18:58:31.761Z,102126.00
2018-12-30T19:01:19.191Z,101907.00
2018-12-30T19:03:47.107Z,102132.00
2018-12-30T19:06:15.175Z,102125.00
2018-12-30T19:08:43.089Z,102121.00
2018-12-30T19:11:54.426Z,101941.00
2018-12-30T19:14:42.201Z,102229.00
2018-12-30T19:17:10.070Z,102106.00
2018-12-30T19:19:57.731Z,102207.00
2018-12-30T19:22:45.073Z,102040.00
2018-12-30T19:25:32.464Z,101931.00
2018-12-30T19:28:19.923Z,101907.00
2018-12-30T19:30:47.847Z,102125.00
2018-12-30T19:33:35.243Z,101982.00
2018-12-30T19:36:22.664Z,101919.00
2018-12-30T19:41:43.860Z,102135.00
2018-12-30T19:44:11.870Z,102130.00
2018-12-30T19:46:39.820Z,102138.00
2018-12-30T19:49:27.565Z,101943.00
2018-12-30T19:51:55.571Z,102138.00
2018-12-30T19:54:42.880Z,102142.00
2018-12-30T19:57:30.738Z,102231.00
2018-12-30T19:59:58.668Z,102137.00
2018-12-30T20:02:45.969Z,102226.00
2018-12-30T20:05:33.603Z,102142.00
2018-12-30T20:08:21.239Z,102099.00
2018-12-30T20:11:08.715Z,102122.00
2018-12-30T20:13:49.340Z,101892.00
2018-12-30T20:16:17.596Z,102113.00
2018-12-30T20:19:05.155Z,101916.00
2018-12-30T20:21:52.575Z,102142.00
2018-12-30T20:24:20.546Z,102100.00
2018-12-30T20:27:08.254Z,102102.00
2018-12-30T20:29:36.196Z,102103.00
2018-12-30T20:32:23.575Z,102089.00
2018-12-30T20:35:11.379Z,102176.00
2018-12-30T20:37:39.288Z,102095.00
2018-12-30T20:40:07.266Z,102080.00
2018-12-30T20:42:54.635Z,102082.00
2018-12-30T20:45:41.983Z,101887.00
2018-12-30T20:48:29.393Z,102198.00
2018-12-30T20:50:57.257Z,102095.00
2018-12-30T20:53:44.870Z,102083.00
2018-12-30T20:56:12.800Z,102082.00
2018-12-30T20:59:00.112Z,102082.00
2018-12-30T21:01:47.792Z,101923.00
2018-12-30T21:04:35.364Z,101913.00
2018-12-30T21:07:23.613Z,101911.00
2018-12-30T21:10:11.011Z,102081.00
2018-12-30T21:12:51.763Z,101960.00
2018-12-30T21:15:39.016Z,102162.00
2018-12-30T21:18:26.780Z,102157.00
2018-12-30T21:21:14.495Z,101940.00
2018-12-30T21:24:01.839Z,102061.00
2018-12-30T21:26:49.452Z,102056.00
2018-12-30T21:29:17.472Z,102056.00
2018-12-30T21:31:45.515Z,102061.00
2018-12-30T21:34:32.892Z,102060.00
2018-12-30T21:37:20.276Z,102051.00
2018-12-30T21:39:48.186Z,102047.00
2018-12-30T21:42:16.082Z,102041.00
2018-12-30T21:45:04.034Z,101744.00
2018-12-30T21:47:51.336Z,102048.00
2018-12-30T21:50:40.517Z,102043.00
2018-12-30T21:53:27.855Z,102050.00
2018-12-30T21:56:15.169Z,102001.00
2018-12-30T21:59:02.652Z,102046.00
2018-12-30T22:01:50.030Z,102009.00
2018-12-30T22:04:37.349Z,102037.00
2018-12-30T22:07:24.719Z,101879.00
2018-12-30T22:09:52.536Z,102027.00
2018-12-30T22:12:20.452Z,102015.00
2018-12-30T22:14:48.311Z,102019.00
2018-12-30T22:17:16.303Z,102011.00
2018-12-30T22:19:44.276Z,102015.00
2018-12-30T22:22:12.207Z,102022.00
2018-12-30T22:24:59.510Z,101791.00
2018-12-30T22:27:46.962Z,101862.00
2018-12-30T22:30:14.822Z,102027.00
2018-12-30T22:33:02.224Z,102030.00
2018-12-30T22:35:30.286Z,102026.00
2018-12-30T22:37:58.086Z,102026.00
2018-12-30T22:40:25.968Z,102018.00
2018-12-30T22:43:14.656Z,102109.00
2018-12-30T22:46:02.500Z,101947.00
2018-12-30T22:48:50.859Z,102020.00
2018-12-30T22:51:18.815Z,102029.00
2018-12-30T22:54:06.134Z,102023.00
2018-12-30T22:56:34.006Z,102028.00
2018-12-30T22:59:02.509Z,102034.00
2018-12-30T23:01:35.340Z,102031.00
2018-12-30T23:04:03.278Z,102033.00
2018-12-30T23:06:31.307Z,102027.00
2018-12-30T23:08:59.116Z,102037.00
2018-12-30T23:11:46.493Z,101828.00
2018-12-30T23:14:33.841Z,101885.00
2018-12-30T23:17:21.885Z,101774.00
2018-12-30T23:20:09.462Z,102059.00
2018-12-30T23:22:56.977Z,101753.00
2018-12-30T23:25:45.927Z,102008.00
2018-12-30T23:28:33.549Z,102014.00
2018-12-30T23:31:20.882Z,102012.00
2018-12-30T23:34:08.224Z,102080.00
2018-12-30T23:36:55.609Z,102023.00
2018-12-30T23:39:42.887Z,101874.00
2018-12-30T23:42:11.023Z,102019.00
2018-12-30T23:44:58.311Z,102018.00
2018-12-30T23:47:45.847Z,101892.00
2018-12-30T23:50:33.163Z,101729.00
2018-12-30T23:53:01.295Z,102008.00
2018-12-30T23:55:49.907Z,102008.00
2018-12-30T23:58:37.224Z,102087.00
